createdAt,value
2019-03-28T00:02:01.986Z,25.73
2019-03-28T00:04:32.018Z,22.20
2019-03-28T00:07:02.029Z,20.10
2019-03-28T00:09:35.399Z,20.07
2019-03-28T00:12:04.559Z,25.87
2019-03-28T00:14:33.946Z,24.63
2019-03-28T00:17:03.997Z,21.00
2019-03-28T00:19:34.030Z,24.97
2019-03-28T00:22:05.813Z,25.73
2019-03-28T00:24:49.031Z,24.73
2019-03-28T00:27:19.680Z,23.07
2019-03-28T00:29:48.818Z,20.60
2019-03-28T00:32:17.975Z,24.07
2019-03-28T00:34:48.699Z,25.20
2019-03-28T00:37:18.716Z,21.27
2019-03-28T00:39:49.024Z,22.73
2019-03-28T00:42:19.303Z,23.23
2019-03-28T00:44:51.800Z,24.37
2019-03-28T00:47:20.957Z,24.03
2019-03-28T00:49:51.174Z,20.87
2019-03-28T00:52:21.209Z,26.87
2019-03-28T00:54:50.358Z,21.33
2019-03-28T00:57:20.646Z,31.50
2019-03-28T00:59:50.655Z,22.30
2019-03-28T01:02:21.184Z,23.03
2019-03-28T01:04:53.121Z,22.80
2019-03-28T01:07:24.748Z,26.07
2019-03-28T01:09:54.750Z,25.43
2019-03-28T01:12:28.104Z,27.13
2019-03-28T01:14:58.180Z,27.93
2019-03-28T01:17:30.994Z,24.83
2019-03-28T01:20:05.607Z,24.27
2019-03-28T01:22:37.950Z,24.70
2019-03-28T01:25:08.206Z,22.77
2019-03-28T01:27:38.242Z,21.23
2019-03-28T01:30:08.506Z,24.73
2019-03-28T01:32:39.039Z,28.73
2019-03-28T01:35:09.179Z,23.03
2019-03-28T01:37:38.306Z,25.23
2019-03-28T01:40:08.700Z,22.37
2019-03-28T01:42:38.775Z,22.00
2019-03-28T01:45:08.930Z,23.90
2019-03-28T01:47:40.922Z,24.53
2019-03-28T01:50:11.156Z,24.70
2019-03-28T01:52:45.490Z,26.67
2019-03-28T01:55:17.458Z,25.57
2019-03-28T01:57:46.612Z,20.80
2019-03-28T02:00:15.831Z,28.33
2019-03-28T02:02:46.538Z,25.03
2019-03-28T02:05:15.784Z,26.93
2019-03-28T02:07:47.394Z,31.87
2019-03-28T02:10:17.426Z,24.77
2019-03-28T02:12:50.303Z,27.03
2019-03-28T02:15:20.595Z,25.17
2019-03-28T02:17:50.646Z,28.37
2019-03-28T02:20:20.656Z,27.40
2019-03-28T02:22:50.042Z,25.33
2019-03-28T02:25:20.125Z,28.27
2019-03-28T02:27:50.127Z,31.70
2019-03-28T02:30:30.545Z,30.17
2019-03-28T02:33:02.927Z,22.93
2019-03-28T02:35:33.325Z,22.97
2019-03-28T02:38:02.465Z,26.67
2019-03-28T02:40:32.488Z,27.43
2019-03-28T02:43:02.766Z,26.93
2019-03-28T02:45:32.842Z,26.17
2019-03-28T02:48:02.863Z,25.10
2019-03-28T02:50:33.144Z,25.30
2019-03-28T02:53:02.295Z,25.20
2019-03-28T02:55:32.316Z,28.87
2019-03-28T02:58:02.849Z,27.03
2019-03-28T03:00:32.894Z,28.60
2019-03-28T03:03:02.028Z,27.43
2019-03-28T03:05:31.427Z,24.80
2019-03-28T03:08:01.473Z,30.20
2019-03-28T03:10:31.487Z,25.07
2019-03-28T03:13:00.891Z,26.70
2019-03-28T03:15:30.944Z,27.20
2019-03-28T03:18:00.962Z,27.47
2019-03-28T03:20:30.371Z,27.70
2019-03-28T03:23:00.427Z,29.30
2019-03-28T03:25:30.440Z,28.57
2019-03-28T03:28:00.443Z,33.97
2019-03-28T03:30:31.707Z,30.97
2019-03-28T03:33:02.537Z,27.97
2019-03-28T03:35:34.000Z,24.73
2019-03-28T03:38:04.026Z,25.87
2019-03-28T03:40:34.055Z,33.33
2019-03-28T03:43:04.087Z,26.63
2019-03-28T03:45:33.487Z,30.17
2019-03-28T03:48:03.526Z,25.23
2019-03-28T03:50:33.589Z,28.93
2019-03-28T03:53:02.742Z,30.37
2019-03-28T03:55:32.757Z,25.87
2019-03-28T03:58:15.413Z,24.50
2019-03-28T04:00:33.597Z,27.80
2019-03-28T04:03:04.367Z,29.87
2019-03-28T04:05:34.550Z,27.37
2019-03-28T04:08:03.941Z,30.10
2019-03-28T04:10:33.973Z,26.90
2019-03-28T04:13:04.028Z,30.00
2019-03-28T04:15:33.445Z,27.50
2019-03-28T04:18:03.659Z,31.90
2019-03-28T04:20:33.705Z,31.13
2019-03-28T04:23:04.256Z,30.63
2019-03-28T04:25:35.767Z,27.53
2019-03-28T04:28:05.486Z,25.63
2019-03-28T04:30:35.779Z,31.80
2019-03-28T04:33:05.799Z,28.40
2019-03-28T04:35:34.950Z,28.07
2019-03-28T04:38:05.254Z,29.13
2019-03-28T04:40:35.255Z,28.63
2019-03-28T04:43:05.320Z,26.93
2019-03-28T04:45:39.974Z,30.20
2019-03-28T04:48:10.034Z,28.03
2019-03-28T04:50:39.171Z,29.53
2019-03-28T04:53:09.953Z,27.03
2019-03-28T04:55:39.987Z,31.40
2019-03-28T04:58:09.994Z,32.83
2019-03-28T05:00:39.431Z,30.87
2019-03-28T05:03:09.473Z,35.10
2019-03-28T05:05:39.486Z,33.43
2019-03-28T05:08:09.778Z,34.27
2019-03-28T05:10:39.913Z,31.90
2019-03-28T05:13:12.043Z,33.80
2019-03-28T05:15:42.430Z,33.40
2019-03-28T05:18:11.573Z,34.20
2019-03-28T05:20:41.610Z,29.10
2019-03-28T05:23:11.899Z,28.80
2019-03-28T05:25:43.138Z,37.30
2019-03-28T05:28:12.266Z,30.90
2019-03-28T05:30:43.249Z,39.53
2019-03-28T05:33:13.295Z,33.63
2019-03-28T05:35:44.815Z,30.50
2019-03-28T05:38:18.688Z,31.27
2019-03-28T05:40:48.871Z,27.73
2019-03-28T05:43:18.770Z,28.53
2019-03-28T05:45:47.911Z,32.43
2019-03-28T05:48:17.077Z,30.70
2019-03-28T05:50:47.615Z,34.70
2019-03-28T05:53:16.782Z,33.83
2019-03-28T05:55:47.123Z,30.87
2019-03-28T05:58:16.685Z,33.27
2019-03-28T06:00:45.819Z,34.57
2019-03-28T06:03:18.639Z,33.77
2019-03-28T06:05:49.110Z,29.27
2019-03-28T06:08:23.810Z,30.27
2019-03-28T06:10:54.001Z,32.33
2019-03-28T06:13:23.414Z,34.67
2019-03-28T06:15:55.419Z,30.40
2019-03-28T06:18:25.030Z,33.80
2019-03-28T06:21:04.023Z,28.20
2019-03-28T06:23:33.219Z,31.83
2019-03-28T06:26:03.303Z,30.00
2019-03-28T06:28:32.439Z,31.53
2019-03-28T06:31:01.867Z,33.43
2019-03-28T06:33:34.843Z,31.60
2019-03-28T06:36:17.017Z,26.47
2019-03-28T06:38:51.146Z,33.03
2019-03-28T06:41:28.876Z,28.77
2019-03-28T06:43:58.983Z,31.37
2019-03-28T06:46:28.523Z,32.87
2019-03-28T06:48:57.731Z,33.97
2019-03-28T06:51:29.998Z,28.83
2019-03-28T06:54:01.571Z,32.83
2019-03-28T06:56:33.603Z,34.77
2019-03-28T06:59:05.541Z,32.20
2019-03-28T07:01:37.736Z,33.30
2019-03-28T07:04:07.847Z,32.33
2019-03-28T07:06:41.288Z,36.37
2019-03-28T07:09:13.143Z,30.37
2019-03-28T07:11:42.287Z,28.80
2019-03-28T07:14:11.716Z,32.10
2019-03-28T07:16:41.776Z,36.07
2019-03-28T07:19:12.184Z,35.07
2019-03-28T07:21:42.529Z,29.70
2019-03-28T07:24:12.570Z,35.07
2019-03-28T07:26:42.632Z,33.07
2019-03-28T07:29:12.070Z,34.17
2019-03-28T07:31:42.102Z,32.10
2019-03-28T07:34:32.875Z,32.70
2019-03-28T07:37:28.370Z,33.13
2019-03-28T07:39:46.512Z,33.20
2019-03-28T07:42:16.543Z,31.43
2019-03-28T07:44:47.096Z,36.30
2019-03-28T07:47:17.579Z,29.97
2019-03-28T07:49:47.718Z,32.20
2019-03-28T07:52:20.264Z,31.40
2019-03-28T07:54:57.864Z,34.07
2019-03-28T07:57:28.995Z,30.30
2019-03-28T08:00:04.308Z,36.17
2019-03-28T08:02:33.554Z,31.77
2019-03-28T08:05:05.064Z,35.30
2019-03-28T08:07:44.790Z,35.33
2019-03-28T08:10:11.279Z,37.80
2019-03-28T08:12:41.371Z,32.47
2019-03-28T08:15:19.138Z,31.47
2019-03-28T08:17:49.451Z,34.83
2019-03-28T08:20:18.706Z,32.07
2019-03-28T08:22:49.932Z,38.03
2019-03-28T08:25:20.252Z,34.53
2019-03-28T08:27:50.280Z,32.10
2019-03-28T08:30:25.721Z,30.37
2019-03-28T08:32:56.019Z,29.63
2019-03-28T08:35:27.185Z,30.97
2019-03-28T08:38:00.760Z,30.20
2019-03-28T08:40:39.598Z,27.40
2019-03-28T08:43:13.035Z,27.90
2019-03-28T08:45:43.095Z,33.27
2019-03-28T08:48:13.111Z,41.83
2019-03-28T08:50:42.270Z,35.47
2019-03-28T08:53:12.723Z,31.43
2019-03-28T08:55:41.895Z,33.00
2019-03-28T08:58:13.482Z,26.70
2019-03-28T09:00:53.181Z,37.77
2019-03-28T09:03:22.383Z,28.40
2019-03-28T09:05:55.779Z,33.43
2019-03-28T09:08:28.751Z,29.30
2019-03-28T09:10:57.945Z,31.10
2019-03-28T09:13:28.047Z,35.50
2019-03-28T09:15:58.043Z,34.80
2019-03-28T09:18:30.891Z,35.77
2019-03-28T09:21:05.872Z,32.93
2019-03-28T09:23:35.927Z,34.87
2019-03-28T09:26:08.867Z,30.07
2019-03-28T09:28:38.932Z,35.80
2019-03-28T09:31:19.162Z,33.10
2019-03-28T09:33:46.583Z,35.57
2019-03-28T09:36:19.653Z,35.40
2019-03-28T09:38:54.591Z,34.97
2019-03-28T09:41:29.696Z,45.27
2019-03-28T09:43:59.752Z,40.87
2019-03-28T09:46:30.840Z,50.60
2019-03-28T09:49:14.682Z,36.83
2019-03-28T09:51:44.175Z,34.33
2019-03-28T09:54:14.293Z,46.73
2019-03-28T09:56:46.285Z,34.27
2019-03-28T09:59:16.403Z,36.80
2019-03-28T10:01:46.718Z,38.63
2019-03-28T10:04:19.569Z,33.53
2019-03-28T10:06:48.765Z,33.83
2019-03-28T10:09:17.993Z,33.93
2019-03-28T10:11:48.680Z,36.97
2019-03-28T10:14:17.841Z,37.87
2019-03-28T10:16:52.050Z,34.40
2019-03-28T10:19:22.452Z,28.67
2019-03-28T10:21:55.986Z,31.43
2019-03-28T10:24:29.891Z,28.07
2019-03-28T10:26:59.054Z,26.57
2019-03-28T10:29:28.306Z,32.50
2019-03-28T10:31:57.774Z,31.07
2019-03-28T10:34:27.850Z,29.67
2019-03-28T10:36:57.970Z,28.10
2019-03-28T10:39:55.710Z,27.13
2019-03-28T10:42:24.869Z,32.80
2019-03-28T10:44:55.243Z,31.60
2019-03-28T10:47:24.525Z,37.10
2019-03-28T10:49:54.654Z,27.67
2019-03-28T10:52:24.083Z,31.27
2019-03-28T10:54:53.254Z,34.37
2019-03-28T10:57:29.897Z,30.13
2019-03-28T10:59:55.701Z,29.90
2019-03-28T11:02:24.893Z,27.47
2019-03-28T11:04:55.610Z,31.67
2019-03-28T11:07:24.849Z,29.50
2019-03-28T11:09:56.410Z,31.27
2019-03-28T11:12:26.813Z,36.60
2019-03-28T11:14:56.909Z,32.23
2019-03-28T11:17:27.175Z,31.07
2019-03-28T11:19:56.642Z,30.40
2019-03-28T11:22:26.776Z,33.10
2019-03-28T11:24:56.875Z,29.67
2019-03-28T11:27:27.257Z,30.57
2019-03-28T11:29:56.437Z,26.73
2019-03-28T11:32:25.625Z,30.00
2019-03-28T11:34:56.051Z,25.80
2019-03-28T11:37:26.841Z,22.20
2019-03-28T11:39:57.174Z,22.93
2019-03-28T11:42:27.824Z,20.20
2019-03-28T11:44:57.130Z,22.07
2019-03-28T11:47:27.254Z,18.77
2019-03-28T11:49:56.708Z,18.13
2019-03-28T11:52:34.498Z,18.67
2019-03-28T11:55:05.102Z,20.70
2019-03-28T11:57:34.270Z,17.87
2019-03-28T12:00:03.786Z,16.83
2019-03-28T12:02:34.206Z,16.67
2019-03-28T12:05:03.377Z,17.47
2019-03-28T12:07:33.537Z,21.17
2019-03-28T12:10:17.366Z,20.23
2019-03-28T12:12:55.194Z,20.73
2019-03-28T12:15:29.474Z,24.43
2019-03-28T12:17:58.646Z,17.93
2019-03-28T12:20:28.762Z,20.90
2019-03-28T12:22:59.177Z,23.53
2019-03-28T12:25:29.299Z,24.27
2019-03-28T12:28:02.606Z,25.10
2019-03-28T12:30:31.778Z,22.90
2019-03-28T12:33:01.892Z,22.73
2019-03-28T12:39:07.044Z,27.20
2019-03-28T12:41:36.765Z,27.73
2019-03-28T12:44:06.915Z,23.67
2019-03-28T12:46:37.027Z,21.67
2019-03-28T12:49:07.793Z,23.37
2019-03-28T12:51:37.903Z,24.43
2019-03-28T12:54:08.054Z,21.07
2019-03-28T12:56:38.690Z,21.93
2019-03-28T12:59:08.766Z,20.27
2019-03-28T13:01:38.818Z,25.43
2019-03-28T13:04:08.950Z,19.50
2019-03-28T13:06:39.075Z,20.27
2019-03-28T13:09:10.661Z,22.37
2019-03-28T13:11:40.786Z,21.53
2019-03-28T13:14:10.942Z,23.83
2019-03-28T13:16:41.397Z,25.47
2019-03-28T13:19:11.798Z,27.17
2019-03-28T13:21:41.381Z,26.00
2019-03-28T13:24:11.386Z,28.17
2019-03-28T13:26:42.419Z,22.40
2019-03-28T13:29:12.958Z,25.40
2019-03-28T13:31:45.887Z,22.97
2019-03-28T13:34:15.054Z,24.40
2019-03-28T13:36:45.165Z,27.23
2019-03-28T13:39:14.666Z,24.53
2019-03-28T13:41:46.098Z,27.30
2019-03-28T13:44:16.307Z,28.80
2019-03-28T13:46:46.814Z,28.77
2019-03-28T13:49:16.941Z,24.93
2019-03-28T13:51:47.173Z,26.30
2019-03-28T13:54:17.939Z,25.37
2019-03-28T13:56:50.613Z,23.93
2019-03-28T13:59:21.211Z,25.47
2019-03-28T14:01:50.402Z,31.57
2019-03-28T14:04:21.637Z,25.33
2019-03-28T14:06:51.190Z,32.27
2019-03-28T14:09:23.276Z,25.03
2019-03-28T14:11:55.037Z,27.77
2019-03-28T14:14:27.512Z,24.57
2019-03-28T14:16:57.173Z,32.37
2019-03-28T14:19:27.630Z,27.63
2019-03-28T14:21:59.957Z,27.93
2019-03-28T14:24:30.044Z,30.40
2019-03-28T14:27:02.927Z,26.97
2019-03-28T14:29:32.531Z,31.90
2019-03-28T14:32:02.686Z,30.97
2019-03-28T14:34:33.058Z,28.50
2019-03-28T14:37:03.468Z,31.27
2019-03-28T14:39:35.475Z,29.50
2019-03-28T14:42:06.081Z,26.03
2019-03-28T14:44:36.561Z,37.67
2019-03-28T14:47:06.676Z,27.70
2019-03-28T14:49:39.848Z,30.50
2019-03-28T14:52:11.957Z,26.80
2019-03-28T14:54:44.866Z,28.60
2019-03-28T14:57:15.531Z,27.80
2019-03-28T14:59:44.848Z,28.53
2019-03-28T15:02:14.995Z,34.83
2019-03-28T15:04:47.828Z,37.27
2019-03-28T15:07:19.617Z,27.47
2019-03-28T15:09:48.784Z,29.13
2019-03-28T15:12:18.960Z,27.47
2019-03-28T15:14:49.113Z,31.20
2019-03-28T15:17:18.301Z,32.80
2019-03-28T15:20:33.782Z,34.50
2019-03-28T15:26:31.878Z,27.93
2019-03-28T15:29:01.123Z,28.43
2019-03-28T15:31:31.316Z,29.20
2019-03-28T15:34:00.948Z,29.43
2019-03-28T15:36:30.180Z,30.37
2019-03-28T15:39:00.265Z,38.70
2019-03-28T15:41:32.906Z,28.77
2019-03-28T15:44:03.307Z,30.57
2019-03-28T15:46:36.271Z,30.30
2019-03-28T15:49:08.300Z,31.47
2019-03-28T15:51:38.552Z,30.97
2019-03-28T15:54:08.877Z,36.20
2019-03-28T15:56:39.134Z,41.67
2019-03-28T15:59:27.102Z,32.93
2019-03-28T16:01:59.664Z,32.60
2019-03-28T16:04:27.102Z,37.33
2019-03-28T16:06:58.336Z,37.87
2019-03-28T16:09:28.161Z,35.70
2019-03-28T16:12:02.776Z,34.97
2019-03-28T16:14:52.381Z,32.73
2019-03-28T16:17:22.773Z,36.30
2019-03-28T16:19:54.555Z,32.40
2019-03-28T16:22:23.757Z,47.23
2019-03-28T16:24:56.067Z,32.47
2019-03-28T16:27:25.721Z,41.37
2019-03-28T16:29:55.896Z,43.33
2019-03-28T16:32:25.146Z,34.07
2019-03-28T16:34:55.291Z,45.93
2019-03-28T16:37:24.891Z,34.87
2019-03-28T16:39:55.055Z,36.20
2019-03-28T16:42:24.989Z,39.63
2019-03-28T16:44:54.565Z,42.77
2019-03-28T16:47:24.692Z,36.57
2019-03-28T16:49:54.441Z,36.87
2019-03-28T16:52:25.118Z,37.30
2019-03-28T16:54:55.520Z,37.70
2019-03-28T16:57:25.233Z,40.90
2019-03-28T16:59:54.785Z,37.03
2019-03-28T17:02:53.095Z,39.37
2019-03-28T17:05:47.026Z,42.03
2019-03-28T17:08:46.889Z,37.77
2019-03-28T17:11:18.105Z,42.63
2019-03-28T17:13:49.375Z,38.23
2019-03-28T17:16:19.551Z,40.60
2019-03-28T17:18:49.083Z,38.17
2019-03-28T17:21:19.558Z,39.83
2019-03-28T17:23:50.883Z,41.60
2019-03-28T17:26:24.086Z,44.23
2019-03-28T17:28:53.635Z,42.80
2019-03-28T17:31:23.754Z,40.37
2019-03-28T17:33:53.974Z,42.07
2019-03-28T17:36:26.617Z,42.00
2019-03-28T17:38:55.238Z,40.53
2019-03-28T17:41:25.375Z,39.13
2019-03-28T17:43:56.006Z,38.47
2019-03-28T17:46:27.946Z,41.80
2019-03-28T17:48:58.852Z,35.13
2019-03-28T17:51:28.695Z,37.83
2019-03-28T17:53:57.893Z,42.40
2019-03-28T17:56:30.387Z,38.13
2019-03-28T17:58:59.243Z,39.57
2019-03-28T18:01:29.384Z,37.20
2019-03-28T18:03:59.506Z,43.40
2019-03-28T18:06:29.920Z,42.80
2019-03-28T18:09:00.810Z,46.40
2019-03-28T18:11:30.056Z,52.93
2019-03-28T18:14:00.747Z,68.03
2019-03-28T18:16:32.169Z,60.47
2019-03-28T18:19:01.586Z,52.10
2019-03-28T18:21:33.102Z,44.70
2019-03-28T18:24:03.728Z,39.93
2019-03-28T18:26:34.117Z,46.30
2019-03-28T18:29:04.754Z,48.73
2019-03-28T18:31:34.752Z,43.17
2019-03-28T18:34:07.805Z,39.77
2019-03-28T18:36:40.151Z,48.03
2019-03-28T18:39:11.704Z,41.87
2019-03-28T18:41:41.026Z,45.13
2019-03-28T18:44:11.497Z,40.77
2019-03-28T18:46:42.167Z,38.70
2019-03-28T18:49:14.352Z,39.03
2019-03-28T18:51:43.898Z,35.67
2019-03-28T18:54:13.384Z,40.33
2019-03-28T18:56:43.822Z,37.83
2019-03-28T18:59:16.595Z,37.70
2019-03-28T19:01:46.618Z,46.17
2019-03-28T19:04:16.887Z,47.27
2019-03-28T19:06:48.099Z,43.83
2019-03-28T19:09:18.276Z,47.70
2019-03-28T19:11:48.034Z,52.37
2019-03-28T19:14:23.347Z,44.90
2019-03-28T19:16:56.205Z,49.93
2019-03-28T19:19:39.695Z,50.80
2019-03-28T19:22:06.380Z,49.43
2019-03-28T19:24:35.976Z,49.27
2019-03-28T19:27:05.193Z,42.67
2019-03-28T19:29:41.130Z,45.47
2019-03-28T19:32:15.948Z,48.20
2019-03-28T19:34:47.322Z,49.33
2019-03-28T19:37:17.581Z,47.27
2019-03-28T19:39:48.133Z,50.40
2019-03-28T19:42:18.963Z,48.60
2019-03-28T19:44:50.695Z,49.40
2019-03-28T19:47:21.042Z,52.17
2019-03-28T19:49:51.774Z,57.27
2019-03-28T19:52:22.061Z,54.20
2019-03-28T19:54:52.489Z,56.07
2019-03-28T19:57:23.216Z,55.00
2019-03-28T19:59:58.450Z,48.40
2019-03-28T20:02:26.990Z,48.97
2019-03-28T20:04:56.513Z,49.90
2019-03-28T20:07:26.865Z,51.47
2019-03-28T20:09:57.507Z,59.07
2019-03-28T20:12:28.440Z,56.23
2019-03-28T20:15:00.135Z,60.37
2019-03-28T20:17:29.585Z,53.93
2019-03-28T20:19:59.715Z,56.93
2019-03-28T20:22:30.828Z,74.40
2019-03-28T20:25:00.368Z,110.50
2019-03-28T20:27:30.439Z,84.27
2019-03-28T20:30:01.577Z,75.30
2019-03-28T20:32:30.906Z,83.47
2019-03-28T20:35:01.671Z,91.10
2019-03-28T20:37:31.878Z,101.37
2019-03-28T20:40:01.620Z,71.83
2019-03-28T20:42:31.826Z,80.37
2019-03-28T20:45:02.295Z,65.60
2019-03-28T20:47:32.393Z,58.77
2019-03-28T20:50:02.510Z,60.23
2019-03-28T20:52:33.017Z,60.00
2019-03-28T20:55:02.201Z,65.13
2019-03-28T20:57:32.346Z,63.17
2019-03-28T21:00:02.899Z,68.30
2019-03-28T21:02:32.279Z,65.87
2019-03-28T21:05:02.527Z,66.50
2019-03-28T21:07:32.054Z,66.00
2019-03-28T21:10:03.582Z,69.27
2019-03-28T21:12:32.993Z,68.43
2019-03-28T21:15:02.829Z,61.17
2019-03-28T21:17:34.015Z,64.30
2019-03-28T21:20:04.418Z,64.50
2019-03-28T21:22:35.495Z,77.20
2019-03-28T21:25:06.022Z,61.77
2019-03-28T21:27:36.388Z,66.13
2019-03-28T21:30:07.099Z,70.27
2019-03-28T21:32:37.213Z,62.30
2019-03-28T21:35:06.749Z,68.80
2019-03-28T21:37:36.946Z,70.57
2019-03-28T21:40:08.055Z,59.70
2019-03-28T21:42:38.159Z,66.50
2019-03-28T21:45:08.920Z,81.47
2019-03-28T21:47:39.034Z,70.07
2019-03-28T21:50:10.400Z,68.53
2019-03-28T21:52:40.935Z,67.23
2019-03-28T21:55:11.633Z,65.53
2019-03-28T21:57:42.583Z,61.17
2019-03-28T22:00:11.968Z,68.50
2019-03-28T22:02:42.056Z,61.00
2019-03-28T22:05:12.440Z,60.80
2019-03-28T22:07:42.557Z,70.77
2019-03-28T22:10:14.450Z,68.33
2019-03-28T22:12:43.874Z,68.00
2019-03-28T22:15:14.089Z,66.57
2019-03-28T22:17:44.189Z,71.40
2019-03-28T22:20:13.358Z,60.23
2019-03-28T22:22:43.738Z,64.70
2019-03-28T22:25:14.790Z,69.37
2019-03-28T22:27:47.172Z,71.00
2019-03-28T22:30:16.069Z,65.43
2019-03-28T22:32:46.687Z,67.43
2019-03-28T22:35:16.775Z,68.93
2019-03-28T22:37:47.296Z,68.40
2019-03-28T22:40:16.485Z,67.27
2019-03-28T22:42:46.082Z,65.70
2019-03-28T22:45:17.977Z,73.47
2019-03-28T22:47:50.620Z,84.53
2019-03-28T22:50:20.749Z,66.27
2019-03-28T22:52:50.181Z,74.03
2019-03-28T22:55:20.282Z,72.00
2019-03-28T22:57:49.485Z,70.10
2019-03-28T23:00:21.150Z,58.70
2019-03-28T23:02:51.260Z,65.93
2019-03-28T23:05:21.539Z,65.17
2019-03-28T23:07:51.924Z,67.47
2019-03-28T23:10:21.146Z,68.23
2019-03-28T23:12:51.270Z,63.37
2019-03-28T23:15:23.374Z,65.07
2019-03-28T23:17:53.473Z,77.00
2019-03-28T23:20:23.811Z,73.60
2019-03-28T23:22:54.281Z,72.67
2019-03-28T23:25:23.459Z,74.03
2019-03-28T23:27:54.472Z,78.60
2019-03-28T23:30:24.894Z,86.30
2019-03-28T23:32:54.997Z,81.87
2019-03-28T23:35:24.172Z,76.30
2019-03-28T23:37:54.569Z,87.07
2019-03-28T23:40:26.319Z,73.27
2019-03-28T23:42:56.438Z,77.33
2019-03-28T23:45:27.934Z,68.33
2019-03-28T23:47:58.030Z,66.00
2019-03-28T23:50:27.233Z,89.73
2019-03-28T23:52:57.655Z,109.47
2019-03-28T23:55:27.753Z,87.30
2019-03-28T23:57:56.950Z,83.40
